Time;durP1;ratioP1;P1;durP2;ratioP2;P2;SDS_P1;SDS_P2;PMS_P1;PMS_P2;Temp;Humidity;BMP_temperature;BMP_pressure;BME280_temperature;BME280_humidity;BME280_pressure;Samples;Min_cycle;Max_cycle;Signal;HPM_P1;HPM_P2
2023/04/25 00:01:40;;;;;;;;;;;;;;;13.49;67.87;99364.12;5446526;32;35017;-61
2023/04/25 00:04:43;;;;;;;;;;;;;;;13.11;67.53;99335.00;5447104;32;44720;-81
2023/04/25 00:07:45;;;;;;;;;;;;;;;13.12;67.57;99360.44;5437146;32;36198;-79
2023/04/25 00:10:48;;;;;;;;;;;;;;;13.14;67.30;99353.28;5447913;32;36000;-61
2023/04/25 00:13:50;;;;;;;;;;;;;;;12.63;68.96;99347.81;5431387;32;35107;-61
2023/04/25 00:16:53;;;;;;;;;;;;;;;13.30;66.33;99356.59;5432691;32;34654;-62
2023/04/25 00:19:55;;;;;;;;;;;;;;;13.62;65.13;99350.97;5441158;32;34958;-60
2023/04/25 00:22:57;;;;;;;;;;;;;;;13.05;66.38;99352.06;5423872;32;35051;-79
2023/04/25 00:25:59;;;;;;;;;;;;;;;13.13;66.61;99341.84;5446037;32;34849;-71
2023/04/25 00:29:01;;;;;;;;;;;;;;;13.85;63.99;99341.44;5442055;32;34781;-61
2023/04/25 00:32:03;;;;;;;;;;;;;;;13.06;65.46;99337.94;5427688;32;35042;-60
2023/04/25 00:35:06;;;;;;;;;;;;;;;13.13;65.98;99343.66;5421440;32;34023;-79
2023/04/25 00:38:08;;;;;;;;;;;;;;;12.99;66.25;99342.75;5431989;32;36800;-60
2023/04/25 00:41:09;;;;;;;;;;;;;;;13.12;66.68;99331.41;5437343;32;35537;-82
2023/04/25 00:44:11;;;;;;;;;;;;;;;12.66;68.86;99329.13;5424371;32;44696;-60
2023/04/25 00:47:13;;;;;;;;;;;;;;;12.92;67.02;99325.66;5425973;32;35174;-80
2023/04/25 00:50:16;;;;;;;;;;;;;;;13.16;66.15;99322.34;5435220;32;35444;-80
2023/04/25 00:53:18;;;;;;;;;;;;;;;12.98;66.00;99327.88;5438158;32;35416;-79
2023/04/25 00:56:20;;;;;;;;;;;;;;;12.42;68.51;99318.38;5425466;32;33758;-60
2023/04/25 00:59:22;;;;;;;;;;;;;;;12.52;67.87;99308.09;5447080;32;34754;-71
2023/04/25 01:02:25;;;;;;;;;;;;;;;12.52;67.95;99306.31;5436277;32;35008;-62
2023/04/25 01:05:27;;;;;;;;;;;;;;;12.83;67.32;99299.06;5443368;32;36076;-62
2023/04/25 01:08:30;;;;;;;;;;;;;;;12.61;66.90;99299.59;5443273;32;35175;-60
2023/04/25 01:11:32;;;;;;;;;;;;;;;12.90;66.58;99290.63;5436932;32;34819;-61
2023/04/25 01:14:33;;;;;;;;;;;;;;;12.76;66.86;99293.34;5417521;32;35186;-61
2023/04/25 01:17:35;;;;;;;;;;;;;;;12.70;66.56;99291.09;5441415;32;34598;-79
2023/04/25 01:20:38;;;;;;;;;;;;;;;13.02;65.36;99296.91;5423847;32;34745;-79
2023/04/25 01:23:40;;;;;;;;;;;;;;;12.65;66.49;99290.53;5425482;32;34806;-79
2023/04/25 01:26:49;;;;;;;;;;;;;;;12.47;68.08;99296.03;5423046;32;43577;-79
2023/04/25 01:29:51;;;;;;;;;;;;;;;12.84;66.23;99296.31;5425329;32;35369;-79
2023/04/25 01:32:56;;;;;;;;;;;;;;;12.77;66.38;99291.53;5419359;32;35216;-61
2023/04/25 01:35:58;;;;;;;;;;;;;;;12.56;67.34;99294.63;5450741;32;35134;-61
2023/04/25 01:39:01;;;;;;;;;;;;;;;12.45;67.58;99290.03;5440814;32;35391;-62
2023/04/25 01:42:03;;;;;;;;;;;;;;;12.51;67.80;99282.69;5449652;32;35819;-61
2023/04/25 01:45:05;;;;;;;;;;;;;;;12.20;68.76;99300.44;5424090;32;34860;-79
2023/04/25 01:48:08;;;;;;;;;;;;;;;12.72;67.78;99289.19;5436325;32;34777;-63
2023/04/25 01:51:11;;;;;;;;;;;;;;;12.26;69.47;99294.78;5428853;32;34393;-61
2023/04/25 01:54:13;;;;;;;;;;;;;;;12.52;68.74;99294.91;5435072;32;44941;-62
2023/04/25 01:57:15;;;;;;;;;;;;;;;12.73;67.60;99283.81;5429138;32;34975;-60
2023/04/25 02:00:17;;;;;;;;;;;;;;;12.86;66.74;99290.94;5439741;32;35475;-79
2023/04/25 02:03:19;;;;;;;;;;;;;;;12.44;68.15;99276.97;5441804;32;35739;-62
2023/04/25 02:06:21;;;;;;;;;;;;;;;12.05;69.14;99289.09;5437862;32;35631;-62
2023/04/25 02:09:23;;;;;;;;;;;;;;;12.55;67.60;99284.16;5438542;32;34778;-62
2023/04/25 02:12:26;;;;;;;;;;;;;;;12.51;67.44;99293.22;5441877;32;34859;-79
2023/04/25 02:15:28;;;;;;;;;;;;;;;12.35;67.19;99291.56;5440224;32;35573;-78
2023/04/25 02:18:31;;;;;;;;;;;;;;;12.40;66.61;99289.47;5417804;32;35377;-61
2023/04/25 02:21:35;;;;;;;;;;;;;;;12.29;66.82;99283.19;5441249;32;34171;-62
2023/04/25 02:24:37;;;;;;;;;;;;;;;12.37;66.76;99294.13;5437913;32;34977;-60
2023/04/25 02:27:39;;;;;;;;;;;;;;;11.99;68.43;99297.38;5440825;32;34509;-78
2023/04/25 02:30:41;;;;;;;;;;;;;;;12.36;66.44;99290.59;5422234;32;44892;-62
2023/04/25 02:33:43;;;;;;;;;;;;;;;12.40;66.15;99297.38;5447513;32;34331;-60
2023/04/25 02:36:45;;;;;;;;;;;;;;;11.82;68.51;99308.09;5427234;32;35163;-61
2023/04/25 02:39:46;;;;;;;;;;;;;;;12.58;65.42;99295.38;5451530;32;35770;-80
2023/04/25 02:42:48;;;;;;;;;;;;;;;11.87;67.64;99292.87;5439853;32;34629;-79
2023/04/25 02:45:50;;;;;;;;;;;;;;;12.34;66.17;99287.25;5447593;32;34888;-61
2023/04/25 02:48:52;;;;;;;;;;;;;;;12.59;65.19;99290.94;5426127;32;35257;-79
2023/04/25 02:51:54;;;;;;;;;;;;;;;12.67;64.21;99291.28;5423317;32;34703;-79
2023/04/25 02:54:56;;;;;;;;;;;;;;;13.01;62.66;99284.66;5450212;32;35012;-62
2023/04/25 02:57:58;;;;;;;;;;;;;;;12.99;61.74;99290.00;5434092;32;36207;-62
2023/04/25 03:01:00;;;;;;;;;;;;;;;12.52;62.47;99287.84;5447314;32;34976;-70
2023/04/25 03:04:02;;;;;;;;;;;;;;;12.76;62.11;99290.69;5438275;32;34443;-60
2023/04/25 03:07:04;;;;;;;;;;;;;;;12.55;62.63;99299.97;5441233;32;34928;-61
2023/04/25 03:10:06;;;;;;;;;;;;;;;12.87;60.89;99282.91;5444149;32;35570;-78
2023/04/25 03:13:08;;;;;;;;;;;;;;;12.08;64.35;99296.78;5427848;32;34443;-78
2023/04/25 03:16:10;;;;;;;;;;;;;;;11.95;64.87;99295.84;5448464;32;42632;-62
2023/04/25 03:19:15;;;;;;;;;;;;;;;11.69;66.08;99293.94;5426192;32;34269;-80
2023/04/25 03:22:17;;;;;;;;;;;;;;;12.14;65.14;99290.28;5446645;32;34887;-62
2023/04/25 03:25:19;;;;;;;;;;;;;;;11.84;65.55;99285.97;5435357;32;34941;-80
2023/04/25 03:28:21;;;;;;;;;;;;;;;11.60;66.19;99282.22;5439658;32;36185;-62
2023/04/25 03:31:23;;;;;;;;;;;;;;;11.99;65.24;99288.62;5417974;32;35194;-79
2023/04/25 03:34:25;;;;;;;;;;;;;;;11.83;65.32;99278.19;5438508;32;34728;-79
2023/04/25 03:37:27;;;;;;;;;;;;;;;12.13;64.74;99288.59;5443501;32;34966;-61
2023/04/25 03:40:29;;;;;;;;;;;;;;;12.62;62.83;99280.19;5437979;32;35731;-79
2023/04/25 03:43:31;;;;;;;;;;;;;;;12.40;63.28;99286.84;5449569;32;35047;-77
2023/04/25 03:46:33;;;;;;;;;;;;;;;12.90;62.01;99282.72;5438978;32;35602;-78
2023/04/25 03:49:35;;;;;;;;;;;;;;;12.77;61.64;99276.56;5442257;32;35352;-79
2023/04/25 03:52:38;;;;;;;;;;;;;;;12.68;62.81;99285.06;5437113;32;35044;-61
2023/04/25 03:55:40;;;;;;;;;;;;;;;12.71;62.16;99295.41;5441944;32;35784;-79
2023/04/25 03:58:44;;;;;;;;;;;;;;;12.26;63.48;99294.78;5449705;32;46728;-79
2023/04/25 04:01:46;;;;;;;;;;;;;;;12.18;64.07;99297.91;5438789;32;35783;-61
2023/04/25 04:04:48;;;;;;;;;;;;;;;12.17;64.49;99297.97;5448617;32;36823;-81
2023/04/25 04:07:50;;;;;;;;;;;;;;;11.96;65.23;99286.16;5438216;32;35219;-61
2023/04/25 04:10:52;;;;;;;;;;;;;;;11.67;65.81;99307.22;5443015;32;36038;-79
2023/04/25 04:13:54;;;;;;;;;;;;;;;11.73;64.88;99285.78;5424008;32;35532;-62
2023/04/25 04:16:56;;;;;;;;;;;;;;;12.01;64.47;99315.69;5410745;32;35003;-78
2023/04/25 04:19:57;;;;;;;;;;;;;;;12.26;63.83;99305.31;5445072;32;35475;-61
2023/04/25 04:23:01;;;;;;;;;;;;;;;12.24;63.56;99317.75;5433402;32;34587;-79
2023/04/25 04:26:03;;;;;;;;;;;;;;;12.03;64.29;99319.06;5435985;32;34165;-79
2023/04/25 04:29:05;;;;;;;;;;;;;;;12.80;62.08;99308.00;5432801;32;35788;-81
2023/04/25 04:32:08;;;;;;;;;;;;;;;13.02;61.19;99315.34;5426145;32;37905;-79
2023/04/25 04:35:10;;;;;;;;;;;;;;;12.26;64.01;99322.94;5440671;32;45398;-79
2023/04/25 04:38:14;;;;;;;;;;;;;;;12.08;65.60;99324.91;5436771;32;34603;-60
2023/04/25 04:41:16;;;;;;;;;;;;;;;12.40;65.13;99312.34;5446893;32;34794;-61
2023/04/25 04:44:18;;;;;;;;;;;;;;;12.71;63.83;99325.25;5440645;32;36646;-62
2023/04/25 04:47:20;;;;;;;;;;;;;;;12.04;65.28;99315.50;5450572;32;35146;-61
2023/04/25 04:50:22;;;;;;;;;;;;;;;12.13;65.65;99326.31;5426175;32;34402;-61
2023/04/25 04:53:24;;;;;;;;;;;;;;;11.85;66.53;99324.56;5432950;32;35427;-80
2023/04/25 04:56:28;;;;;;;;;;;;;;;11.42;68.23;99334.16;5448641;32;34267;-80
2023/04/25 04:59:29;;;;;;;;;;;;;;;11.92;66.99;99322.41;5439640;32;34795;-79
2023/04/25 05:02:31;;;;;;;;;;;;;;;12.21;65.75;99320.56;5450239;32;34927;-62
2023/04/25 05:05:33;;;;;;;;;;;;;;;12.21;67.84;99328.47;5428221;32;34428;-62
2023/04/25 05:08:36;;;;;;;;;;;;;;;12.32;65.89;99319.91;5446254;32;35894;-79
2023/04/25 05:11:38;;;;;;;;;;;;;;;11.46;68.24;99329.53;5427132;32;34670;-79
2023/04/25 05:14:39;;;;;;;;;;;;;;;11.24;70.36;99322.06;5440828;32;34592;-81
2023/04/25 05:17:41;;;;;;;;;;;;;;;11.19;70.37;99330.22;5446875;32;44516;-82
2023/04/25 05:20:43;;;;;;;;;;;;;;;11.71;68.75;99323.66;5438185;32;35019;-61
2023/04/25 05:23:45;;;;;;;;;;;;;;;11.88;68.09;99327.00;5443309;32;34743;-61
2023/04/25 05:26:47;;;;;;;;;;;;;;;11.51;70.12;99341.47;5430981;32;35019;-80
2023/04/25 05:29:49;;;;;;;;;;;;;;;11.58;70.78;99345.44;5437701;32;35361;-82
2023/04/25 05:32:51;;;;;;;;;;;;;;;12.39;68.07;99323.84;5425095;32;34857;-79
2023/04/25 05:35:53;;;;;;;;;;;;;;;12.51;66.63;99332.75;5419163;32;34717;-62
2023/04/25 05:38:55;;;;;;;;;;;;;;;12.08;68.54;99335.44;5440199;32;36479;-68
2023/04/25 05:41:57;;;;;;;;;;;;;;;11.03;71.06;99332.91;5430480;32;35284;-62
2023/04/25 05:44:59;;;;;;;;;;;;;;;11.86;68.17;99336.78;5436021;32;36066;-60
2023/04/25 05:48:01;;;;;;;;;;;;;;;11.49;70.11;99334.62;5429152;32;34323;-60
2023/04/25 05:51:03;;;;;;;;;;;;;;;11.41;72.28;99344.75;5434426;32;35548;-71
2023/04/25 05:54:05;;;;;;;;;;;;;;;10.92;74.71;99330.03;5428949;32;35049;-69
2023/04/25 05:57:07;;;;;;;;;;;;;;;11.08;74.18;99341.38;5436890;32;34382;-60
2023/04/25 06:00:09;;;;;;;;;;;;;;;10.80;76.69;99347.34;5441270;32;34141;-65
2023/04/25 06:03:13;;;;;;;;;;;;;;;10.94;75.17;99353.59;5434327;32;44906;-61
2023/04/25 06:06:18;;;;;;;;;;;;;;;10.87;75.18;99341.75;5428859;32;34017;-75
2023/04/25 06:09:21;;;;;;;;;;;;;;;10.75;77.18;99349.38;5401800;32;34490;-71
2023/04/25 06:12:23;;;;;;;;;;;;;;;11.39;73.29;99345.69;5433825;32;33020;-59
2023/04/25 06:15:25;;;;;;;;;;;;;;;10.85;76.96;99336.59;5433195;32;36614;-70
2023/04/25 06:18:34;;;;;;;;;;;;;;;11.24;76.00;99343.13;5438471;32;36803;-66
2023/04/25 06:21:36;;;;;;;;;;;;;;;11.17;75.98;99355.78;5439660;32;35587;-61
2023/04/25 06:24:41;;;;;;;;;;;;;;;11.34;75.34;99355.66;5436657;32;44741;-62
2023/04/25 06:27:43;;;;;;;;;;;;;;;12.04;73.20;99349.72;5436212;32;34288;-61
2023/04/25 06:30:45;;;;;;;;;;;;;;;11.52;74.68;99363.38;5408247;32;34267;-63
2023/04/25 06:33:48;;;;;;;;;;;;;;;11.69;74.04;99365.00;5432943;32;34257;-70
2023/04/25 06:36:51;;;;;;;;;;;;;;;11.47;75.85;99361.03;5415453;32;37501;-64
2023/04/25 06:39:53;;;;;;;;;;;;;;;12.04;73.91;99369.00;5432738;32;34280;-75
2023/04/25 06:42:55;;;;;;;;;;;;;;;11.83;73.27;99355.38;5436440;32;33619;-77
2023/04/25 06:45:57;;;;;;;;;;;;;;;12.25;73.96;99345.78;5428973;32;34307;-64
2023/04/25 06:49:02;;;;;;;;;;;;;;;11.52;74.44;99360.75;5427196;32;36167;-78
2023/04/25 06:52:04;;;;;;;;;;;;;;;11.87;74.18;99367.44;5434541;32;34144;-75
2023/04/25 06:55:07;;;;;;;;;;;;;;;12.09;71.14;99355.56;5427393;32;37557;-67
2023/04/25 06:58:09;;;;;;;;;;;;;;;11.93;73.78;99366.22;5442119;32;35376;-61
2023/04/25 07:01:11;;;;;;;;;;;;;;;11.98;71.26;99363.28;5439381;32;45246;-59
2023/04/25 07:04:13;;;;;;;;;;;;;;;12.27;72.79;99369.41;5437201;32;36148;-66
2023/04/25 07:07:16;;;;;;;;;;;;;;;12.05;71.46;99362.00;5412620;32;34444;-72
2023/04/25 07:10:19;;;;;;;;;;;;;;;12.27;70.32;99362.34;5444298;32;34300;-73
2023/04/25 07:13:21;;;;;;;;;;;;;;;12.42;70.29;99361.37;5435676;32;34844;-59
2023/04/25 07:16:23;;;;;;;;;;;;;;;12.72;70.29;99355.09;5434941;32;36417;-72
2023/04/25 07:19:26;;;;;;;;;;;;;;;12.85;69.40;99357.81;5437385;32;36321;-72
2023/04/25 07:22:28;;;;;;;;;;;;;;;12.43;70.01;99349.06;5435410;32;34229;-59
2023/04/25 07:25:32;;;;;;;;;;;;;;;12.53;70.18;99363.34;5444506;32;35531;-73
2023/04/25 07:28:34;;;;;;;;;;;;;;;13.77;65.91;99365.75;5438651;32;34207;-60
2023/04/25 07:31:36;;;;;;;;;;;;;;;12.97;67.45;99362.28;5429846;32;34353;-61
2023/04/25 07:34:39;;;;;;;;;;;;;;;12.39;70.05;99363.38;5430006;32;35889;-76
2023/04/25 07:37:41;;;;;;;;;;;;;;;12.91;67.66;99362.69;5417888;32;46120;-60
2023/04/25 07:40:46;;;;;;;;;;;;;;;13.61;65.21;99370.41;5441388;32;34386;-75
2023/04/25 07:43:48;;;;;;;;;;;;;;;13.76;64.98;99362.25;5432117;32;34457;-76
2023/04/25 07:46:50;;;;;;;;;;;;;;;13.34;64.38;99367.81;5437014;32;35821;-61
2023/04/25 07:49:53;;;;;;;;;;;;;;;13.11;68.25;99371.94;5428212;32;34775;-71
2023/04/25 07:52:55;;;;;;;;;;;;;;;13.53;65.39;99353.28;5432314;32;34339;-75
2023/04/25 07:55:57;;;;;;;;;;;;;;;12.96;64.12;99372.00;5438683;32;35530;-61
2023/04/25 07:59:00;;;;;;;;;;;;;;;13.39;65.12;99379.72;5406999;32;34295;-74
2023/04/25 08:02:02;;;;;;;;;;;;;;;14.67;60.83;99370.00;5438140;32;35761;-74
2023/04/25 08:05:04;;;;;;;;;;;;;;;13.30;62.91;99366.31;5426761;32;34341;-62
2023/04/25 08:08:07;;;;;;;;;;;;;;;13.46;63.15;99365.22;5440150;32;34807;-75
2023/04/25 08:11:10;;;;;;;;;;;;;;;14.23;60.55;99363.44;5421904;32;34900;-62
2023/04/25 08:14:12;;;;;;;;;;;;;;;14.88;58.47;99362.34;5420833;32;44372;-59
2023/04/25 08:17:15;;;;;;;;;;;;;;;15.39;57.43;99365.56;5420096;32;34269;-76
2023/04/25 08:20:18;;;;;;;;;;;;;;;13.69;60.51;99376.84;5427585;32;34386;-61
2023/04/25 08:23:20;;;;;;;;;;;;;;;14.30;58.62;99369.13;5446676;32;34467;-61
2023/04/25 08:26:23;;;;;;;;;;;;;;;14.83;56.85;99352.06;5424871;32;34322;-87
2023/04/25 08:29:28;;;;;;;;;;;;;;;15.15;58.12;99367.38;5396944;32;35184;-84
2023/04/25 08:32:30;;;;;;;;;;;;;;;14.54;57.80;99362.09;5423573;32;35537;-83
2023/04/25 08:35:33;;;;;;;;;;;;;;;15.78;54.71;99360.87;5450520;32;36643;-59
2023/04/25 08:38:36;;;;;;;;;;;;;;;14.19;58.67;99371.66;5438046;32;33452;-66
2023/04/25 08:41:38;;;;;;;;;;;;;;;14.76;56.72;99371.16;5431384;32;35533;-74
2023/04/25 08:44:40;;;;;;;;;;;;;;;15.17;56.67;99373.41;5450289;32;35867;-78
2023/04/25 08:47:42;;;;;;;;;;;;;;;15.06;56.38;99389.22;5440818;32;34213;-67
2023/04/25 08:50:44;;;;;;;;;;;;;;;14.57;56.42;99380.41;5443444;32;36081;-74
2023/04/25 08:53:46;;;;;;;;;;;;;;;14.47;56.96;99386.44;5432915;32;34441;-62
2023/04/25 08:56:55;;;;;;;;;;;;;;;15.28;54.44;99381.41;5444234;26;35908;-87
2023/04/25 09:00:01;;;;;;;;;;;;;;;15.30;54.37;99382.13;5385224;32;34260;-92
2023/04/25 09:03:03;;;;;;;;;;;;;;;15.44;53.08;99387.22;5386437;32;34142;-90
2023/04/25 09:06:05;;;;;;;;;;;;;;;14.74;56.03;99384.47;5419538;32;34481;-89
2023/04/25 09:09:08;;;;;;;;;;;;;;;15.10;54.68;99393.34;5370574;32;35435;-88
2023/04/25 09:12:11;;;;;;;;;;;;;;;15.53;53.02;99383.06;5381939;32;44444;-88
2023/04/25 09:15:14;;;;;;;;;;;;;;;15.69;52.99;99391.56;5372783;32;36469;-87
2023/04/25 09:18:26;;;;;;;;;;;;;;;15.30;53.01;99394.53;5384310;32;34303;-89
2023/04/25 09:21:32;;;;;;;;;;;;;;;14.70;54.51;99398.87;5382165;32;34429;-88
2023/04/25 09:24:36;;;;;;;;;;;;;;;15.69;52.46;99386.25;5400804;32;36022;-90
2023/04/25 09:27:55;;;;;;;;;;;;;;;15.34;53.04;99396.00;5394701;32;33551;-88
2023/04/25 09:30:57;;;;;;;;;;;;;;;15.40;53.54;99391.09;5384134;32;32203;-87
2023/04/25 09:34:03;;;;;;;;;;;;;;;14.75;54.54;99383.53;5388879;32;36844;-88
2023/04/25 09:37:06;;;;;;;;;;;;;;;15.79;51.87;99385.56;5385601;32;36191;-89
2023/04/25 09:40:10;;;;;;;;;;;;;;;15.92;51.41;99381.00;5371566;32;34371;-87
2023/04/25 09:43:21;;;;;;;;;;;;;;;15.88;50.00;99387.50;5377569;32;45970;-87
2023/04/25 09:46:25;;;;;;;;;;;;;;;15.28;52.19;99383.22;5385738;32;34471;-89
2023/04/25 09:49:27;;;;;;;;;;;;;;;15.01;52.29;99376.34;5396884;32;35773;-89
2023/04/25 09:52:30;;;;;;;;;;;;;;;15.45;51.79;99378.31;5407284;32;34351;-88
2023/04/25 09:55:32;;;;;;;;;;;;;;;15.52;52.28;99381.38;5392462;32;34376;-89
2023/04/25 09:58:35;;;;;;;;;;;;;;;15.73;51.45;99389.53;5406283;32;34290;-88
2023/04/25 10:01:37;;;;;;;;;;;;;;;14.93;52.52;99375.19;5387730;32;35472;-88
2023/04/25 10:04:42;;;;;;;;;;;;;;;15.86;49.57;99384.97;5407289;32;45445;-88
2023/04/25 10:07:44;;;;;;;;;;;;;;;16.25;47.96;99367.78;5409839;32;35763;-87
2023/04/25 10:10:46;;;;;;;;;;;;;;;16.53;46.62;99371.72;5411064;32;34522;-90
2023/04/25 10:13:49;;;;;;;;;;;;;;;16.87;46.38;99363.75;5395588;32;34281;-89
2023/04/25 10:16:56;;;;;;;;;;;;;;;16.13;46.30;99384.66;5408521;32;35799;-91
2023/04/25 10:19:58;;;;;;;;;;;;;;;15.70;47.16;99389.75;5397885;32;34317;-87
2023/04/25 10:23:07;;;;;;;;;;;;;;;15.48;47.85;99379.91;5403436;32;34844;-87
2023/04/25 10:26:12;;;;;;;;;;;;;;;15.35;49.12;99377.34;5413373;32;35401;-89
2023/04/25 10:29:21;;;;;;;;;;;;;;;15.92;47.83;99378.38;5378301;32;46180;-89
2023/04/25 10:32:23;;;;;;;;;;;;;;;14.75;50.64;99380.03;5389325;32;34757;-87
2023/04/25 10:35:29;;;;;;;;;;;;;;;14.81;50.24;99384.88;5399024;32;34842;-87
2023/04/25 10:38:34;;;;;;;;;;;;;;;15.68;48.80;99381.91;5403695;32;34248;-88
2023/04/25 10:41:46;;;;;;;;;;;;;;;16.87;45.57;99368.22;5406570;32;34158;-85
2023/04/25 10:45:21;;;;;;;;;;;;;;;17.40;44.68;99368.28;5397827;32;44421;-91
2023/04/25 10:48:50;;;;;;;;;;;;;;;16.44;45.73;99369.00;5367805;32;35653;-86
2023/04/25 10:51:58;;;;;;;;;;;;;;;17.05;44.65;99380.81;5402697;32;33022;-85
2023/04/25 10:55:00;;;;;;;;;;;;;;;16.88;45.17;99381.38;5395145;32;34671;-92
2023/04/25 10:58:06;;;;;;;;;;;;;;;16.87;43.94;99378.81;5406710;32;34047;-90
2023/04/25 11:01:09;;;;;;;;;;;;;;;16.33;44.55;99377.78;5419233;32;35212;-88
2023/04/25 11:04:21;;;;;;;;;;;;;;;16.70;42.94;99396.12;5394525;32;44758;-88
2023/04/25 11:07:36;;;;;;;;;;;;;;;17.29;42.66;99387.75;5415253;32;32565;-89
2023/04/25 11:10:38;;;;;;;;;;;;;;;16.83;43.11;99393.31;5375386;32;36863;-87
2023/04/25 11:13:40;;;;;;;;;;;;;;;16.14;43.85;99404.03;5392890;32;34283;-87
2023/04/25 11:16:43;;;;;;;;;;;;;;;17.15;41.77;99396.84;5387941;32;35683;-87
2023/04/25 11:19:45;;;;;;;;;;;;;;;17.87;40.12;99383.75;5386412;32;34351;-89
2023/04/25 11:22:48;;;;;;;;;;;;;;;19.49;36.93;99393.34;5407648;32;36413;-90
2023/04/25 11:25:53;;;;;;;;;;;;;;;18.74;37.46;99385.13;5384554;32;35718;-89
2023/04/25 11:29:00;;;;;;;;;;;;;;;19.80;36.05;99395.88;5401847;32;36735;-86
2023/04/25 11:32:05;;;;;;;;;;;;;;;20.04;34.95;99395.41;5380658;32;34506;-96
2023/04/25 11:35:08;;;;;;;;;;;;;;;19.70;34.99;99403.03;5409009;32;34682;-86
2023/04/25 11:38:10;;;;;;;;;;;;;;;19.70;35.16;99397.69;5407543;32;37029;-89
2023/04/25 11:41:13;;;;;;;;;;;;;;;21.77;32.17;99386.56;5413366;32;36243;-90
2023/04/25 11:44:18;;;;;;;;;;;;;;;21.77;31.86;99382.06;5410624;32;37284;-90
2023/04/25 11:47:20;;;;;;;;;;;;;;;19.13;36.32;99399.37;5411645;32;35611;-93
2023/04/25 11:50:22;;;;;;;;;;;;;;;19.07;35.36;99408.75;5410157;32;34712;-91
2023/04/25 11:53:28;;;;;;;;;;;;;;;18.63;36.90;99405.53;5388368;32;35313;-90
2023/04/25 11:56:31;;;;;;;;;;;;;;;19.12;36.05;99401.16;5393127;32;38001;-89
2023/04/25 11:59:33;;;;;;;;;;;;;;;17.79;36.95;99420.75;5403665;32;34191;-87
2023/04/25 12:02:36;;;;;;;;;;;;;;;16.99;39.29;99417.62;5411092;32;34522;-89
2023/04/25 12:05:39;;;;;;;;;;;;;;;16.88;39.62;99425.66;5390944;32;36682;-87
2023/04/25 12:08:58;;;;;;;;;;;;;;;17.65;38.09;99428.19;5386881;32;44648;-95
2023/04/25 12:12:04;;;;;;;;;;;;;;;16.93;39.15;99431.41;5409577;32;34469;-92
2023/04/25 12:15:09;;;;;;;;;;;;;;;17.36;39.64;99434.06;5399191;32;34128;-91
2023/04/25 12:18:12;;;;;;;;;;;;;;;17.70;39.55;99432.13;5411052;32;44504;-88
2023/04/25 12:21:14;;;;;;;;;;;;;;;17.40;39.57;99432.03;5411711;32;34201;-87
2023/04/25 12:24:18;;;;;;;;;;;;;;;19.65;35.55;99419.47;5377039;32;35714;-93
2023/04/25 12:27:20;;;;;;;;;;;;;;;20.86;33.52;99417.84;5378381;32;34197;-90
2023/04/25 12:30:23;;;;;;;;;;;;;;;20.72;32.64;99427.22;5389884;32;34520;-90
2023/04/25 12:33:27;;;;;;;;;;;;;;;20.87;31.43;99406.22;5397037;32;34627;-89
2023/04/25 12:36:32;;;;;;;;;;;;;;;24.01;28.14;99402.06;5384419;32;35469;-87
2023/04/25 12:39:38;;;;;;;;;;;;;;;21.35;30.45;99412.09;5377836;32;35340;-92
2023/04/25 12:42:40;;;;;;;;;;;;;;;19.01;33.76;99411.12;5395395;32;35520;-88
2023/04/25 12:45:42;;;;;;;;;;;;;;;19.81;32.56;99402.88;5392601;32;44565;-88
2023/04/25 12:48:44;;;;;;;;;;;;;;;18.74;33.93;99398.41;5404667;32;34356;-88
2023/04/25 12:51:47;;;;;;;;;;;;;;;19.31;33.47;99404.84;5388908;32;33337;-86
2023/04/25 12:54:49;;;;;;;;;;;;;;;19.80;31.12;99389.72;5395157;32;33853;-88
2023/04/25 12:57:52;;;;;;;;;;;;;;;17.80;33.55;99398.53;5395290;32;34309;-87
2023/04/25 13:00:54;;;;;;;;;;;;;;;18.31;33.12;99396.84;5391024;32;34777;-88
2023/04/25 13:03:56;;;;;;;;;;;;;;;17.53;34.83;99395.50;5391458;32;33973;-91
2023/04/25 13:06:58;;;;;;;;;;;;;;;18.03;34.38;99398.37;5385565;32;33051;-87
2023/04/25 13:10:02;;;;;;;;;;;;;;;17.51;35.41;99397.44;5375827;32;35826;-87
2023/04/25 13:13:05;;;;;;;;;;;;;;;17.28;34.52;99397.53;5382375;32;32348;-86
2023/04/25 13:16:07;;;;;;;;;;;;;;;17.41;34.91;99391.22;5387425;32;34213;-90
2023/04/25 13:19:11;;;;;;;;;;;;;;;18.23;33.85;99386.88;5383901;32;34477;-92
2023/04/25 13:22:15;;;;;;;;;;;;;;;17.34;35.30;99390.87;5381366;32;44595;-89
2023/04/25 13:25:17;;;;;;;;;;;;;;;16.73;36.45;99380.78;5386303;32;34229;-89
2023/04/25 13:28:19;;;;;;;;;;;;;;;17.93;34.15;99381.53;5367079;32;34632;-90
2023/04/25 13:31:22;;;;;;;;;;;;;;;17.47;34.09;99380.06;5362994;32;36983;-87
2023/04/25 13:34:25;;;;;;;;;;;;;;;17.40;34.93;99379.75;5382304;32;34377;-89
2023/04/25 13:37:29;;;;;;;;;;;;;;;17.73;33.74;99376.09;5377239;32;35914;-86
2023/04/25 13:40:33;;;;;;;;;;;;;;;18.78;31.51;99359.91;5388240;32;35525;-87
2023/04/25 13:43:35;;;;;;;;;;;;;;;18.55;29.91;99367.28;5392474;32;36602;-93
2023/04/25 13:46:38;;;;;;;;;;;;;;;17.71;31.46;99358.56;5396492;32;36085;-89
2023/04/25 13:49:48;;;;;;;;;;;;;;;17.23;33.18;99364.34;5394400;32;44262;-95
2023/04/25 13:52:51;;;;;;;;;;;;;;;16.81;32.85;99364.25;5396489;32;35699;-90
2023/04/25 13:55:55;;;;;;;;;;;;;;;17.10;32.96;99361.03;5371754;32;36730;-91
2023/04/25 13:58:58;;;;;;;;;;;;;;;17.22;33.52;99366.16;5371759;32;34214;-90
2023/04/25 14:02:01;;;;;;;;;;;;;;;17.70;30.15;99370.16;5374489;32;35502;-89
2023/04/25 14:05:06;;;;;;;;;;;;;;;16.76;31.64;99369.09;5396371;32;34117;-91
2023/04/25 14:08:10;;;;;;;;;;;;;;;16.74;32.30;99379.84;5382553;32;34584;-89
2023/04/25 14:11:13;;;;;;;;;;;;;;;17.51;31.46;99366.38;5360563;32;847964;-86
2023/04/25 14:14:16;;;;;;;;;;;;;;;17.00;32.13;99356.50;5390860;32;35818;-86
2023/04/25 14:17:18;;;;;;;;;;;;;;;17.81;30.83;99365.66;5399944;32;35437;-96
2023/04/25 14:20:23;;;;;;;;;;;;;;;17.70;31.00;99375.47;5405658;32;37650;-88
2023/04/25 14:23:27;;;;;;;;;;;;;;;16.86;32.28;99363.88;5412175;32;35422;-89
2023/04/25 14:26:30;;;;;;;;;;;;;;;16.51;33.01;99370.19;5402254;32;37245;-90
2023/04/25 14:29:34;;;;;;;;;;;;;;;16.58;33.22;99376.69;5419751;32;34753;-88
2023/04/25 14:32:37;;;;;;;;;;;;;;;16.25;33.65;99369.59;5387563;32;35283;-87
2023/04/25 14:35:39;;;;;;;;;;;;;;;16.64;33.40;99376.19;5408863;32;34982;-87
2023/04/25 14:38:41;;;;;;;;;;;;;;;16.90;33.39;99374.13;5407877;32;44736;-86
2023/04/25 14:41:43;;;;;;;;;;;;;;;16.07;34.73;99374.53;5395052;32;35795;-88
2023/04/25 14:44:46;;;;;;;;;;;;;;;17.08;33.67;99365.62;5391719;32;34489;-88
2023/04/25 14:47:48;;;;;;;;;;;;;;;17.09;33.51;99357.53;5405129;32;34355;-88
2023/04/25 14:50:51;;;;;;;;;;;;;;;16.78;34.03;99362.69;5381640;32;34283;-89
2023/04/25 14:53:53;;;;;;;;;;;;;;;17.15;33.07;99362.34;5403735;32;36634;-90
2023/04/25 14:56:56;;;;;;;;;;;;;;;17.35;33.08;99365.16;5416740;32;34434;-89
2023/04/25 14:59:59;;;;;;;;;;;;;;;16.92;33.42;99358.91;5398874;32;37048;-88
2023/04/25 15:03:01;;;;;;;;;;;;;;;16.75;33.91;99359.44;5424629;32;35477;-95
2023/04/25 15:06:06;;;;;;;;;;;;;;;16.17;33.89;99374.66;5455382;32;35134;-88
2023/04/25 15:09:10;;;;;;;;;;;;;;;16.35;33.81;99375.00;5411162;32;35791;-89
2023/04/25 15:12:13;;;;;;;;;;;;;;;16.28;34.15;99373.81;5441895;32;45164;-92
2023/04/25 15:15:16;;;;;;;;;;;;;;;16.43;34.26;99368.16;5435064;32;35122;-89
2023/04/25 15:18:27;;;;;;;;;;;;;;;16.71;34.34;99372.12;5407718;32;34179;-86
2023/04/25 15:21:30;;;;;;;;;;;;;;;16.35;34.68;99372.34;5422993;32;37100;-91
2023/04/25 15:24:32;;;;;;;;;;;;;;;16.53;34.60;99365.59;5411368;32;34609;-89
2023/04/25 15:27:41;;;;;;;;;;;;;;;16.93;34.00;99375.66;5414261;32;34271;-87
2023/04/25 15:30:43;;;;;;;;;;;;;;;16.64;33.95;99375.34;5394860;32;42579;-86
2023/04/25 15:33:45;;;;;;;;;;;;;;;17.00;33.56;99371.53;5410104;32;35723;-87
2023/04/25 15:36:47;;;;;;;;;;;;;;;16.84;33.30;99369.31;5397976;32;35511;-87
2023/04/25 15:39:54;;;;;;;;;;;;;;;17.52;32.62;99373.41;5408954;32;35427;-90
2023/04/25 15:42:57;;;;;;;;;;;;;;;17.57;32.78;99376.50;5400447;32;34153;-90
2023/04/25 15:45:59;;;;;;;;;;;;;;;16.95;33.82;99392.34;5405074;32;36909;-90
2023/04/25 15:49:01;;;;;;;;;;;;;;;16.61;34.71;99379.06;5418716;32;34298;-93
2023/04/25 15:52:04;;;;;;;;;;;;;;;17.00;33.78;99376.84;5391880;32;34196;-88
2023/04/25 15:55:09;;;;;;;;;;;;;;;17.19;33.86;99385.00;5412413;32;34234;-86